sensor_id;sensor_type;location;lat;lon;timestamp;P1;durP1;ratioP1;P2;durP2;ratioP2
16579;SDS011;8402;51.466;6.806;2024-01-10T00:00:45;8.53;;;3.00;;
16579;SDS011;8402;51.466;6.806;2024-01-10T00:03:15;11.60;;;3.37;;
16579;SDS011;8402;51.466;6.806;2024-01-10T00:05:45;11.47;;;3.97;;
16579;SDS011;8402;51.466;6.806;2024-01-10T00:08:18;7.13;;;3.40;;
16579;SDS011;8402;51.466;6.806;2024-01-10T00:10:48;11.50;;;3.43;;
16579;SDS011;8402;51.466;6.806;2024-01-10T00:13:20;7.50;;;3.10;;
16579;SDS011;8402;51.466;6.806;2024-01-10T00:15:51;9.33;;;3.73;;
16579;SDS011;8402;51.466;6.806;2024-01-10T00:18:22;6.73;;;3.10;;
16579;SDS011;8402;51.466;6.806;2024-01-10T00:20:55;8.53;;;3.13;;
16579;SDS011;8402;51.466;6.806;2024-01-10T00:23:27;6.37;;;2.90;;
16579;SDS011;8402;51.466;6.806;2024-01-10T00:25:58;6.23;;;2.43;;
16579;SDS011;8402;51.466;6.806;2024-01-10T00:28:28;7.57;;;2.30;;
16579;SDS011;8402;51.466;6.806;2024-01-10T00:31:01;6.27;;;2.87;;
16579;SDS011;8402;51.466;6.806;2024-01-10T00:33:42;9.57;;;3.40;;
16579;SDS011;8402;51.466;6.806;2024-01-10T00:36:13;5.07;;;2.37;;
16579;SDS011;8402;51.466;6.806;2024-01-10T00:38:46;8.93;;;2.93;;
16579;SDS011;8402;51.466;6.806;2024-01-10T00:41:16;7.60;;;2.50;;
16579;SDS011;8402;51.466;6.806;2024-01-10T00:43:47;7.83;;;3.03;;
16579;SDS011;8402;51.466;6.806;2024-01-10T00:46:17;7.67;;;2.97;;
16579;SDS011;8402;51.466;6.806;2024-01-10T00:48:48;13.03;;;3.27;;
16579;SDS011;8402;51.466;6.806;2024-01-10T00:51:25;8.37;;;2.57;;
16579;SDS011;8402;51.466;6.806;2024-01-10T00:54:00;9.63;;;3.30;;
16579;SDS011;8402;51.466;6.806;2024-01-10T00:56:33;7.80;;;2.90;;
16579;SDS011;8402;51.466;6.806;2024-01-10T00:59:03;7.37;;;3.20;;
16579;SDS011;8402;51.466;6.806;2024-01-10T01:01:33;4.57;;;2.73;;
16579;SDS011;8402;51.466;6.806;2024-01-10T01:04:04;6.17;;;2.30;;
16579;SDS011;8402;51.466;6.806;2024-01-10T01:06:37;6.90;;;2.60;;
16579;SDS011;8402;51.466;6.806;2024-01-10T01:09:17;5.43;;;2.63;;
16579;SDS011;8402;51.466;6.806;2024-01-10T01:11:48;6.73;;;2.40;;
16579;SDS011;8402;51.466;6.806;2024-01-10T01:14:18;7.70;;;3.00;;
16579;SDS011;8402;51.466;6.806;2024-01-10T01:16:48;6.17;;;2.80;;
16579;SDS011;8402;51.466;6.806;2024-01-10T01:19:18;9.73;;;2.97;;
16579;SDS011;8402;51.466;6.806;2024-01-10T01:21:48;6.80;;;3.23;;
16579;SDS011;8402;51.466;6.806;2024-01-10T01:24:24;6.70;;;2.03;;
16579;SDS011;8402;51.466;6.806;2024-01-10T01:26:57;9.63;;;3.03;;
16579;SDS011;8402;51.466;6.806;2024-01-10T01:29:27;6.63;;;2.40;;
16579;SDS011;8402;51.466;6.806;2024-01-10T01:31:58;9.13;;;3.43;;
16579;SDS011;8402;51.466;6.806;2024-01-10T01:34:35;5.97;;;2.43;;
16579;SDS011;8402;51.466;6.806;2024-01-10T01:37:07;6.23;;;2.00;;
16579;SDS011;8402;51.466;6.806;2024-01-10T01:39:40;7.17;;;3.07;;
16579;SDS011;8402;51.466;6.806;2024-01-10T01:42:10;9.07;;;3.23;;
16579;SDS011;8402;51.466;6.806;2024-01-10T01:44:43;10.00;;;4.20;;
16579;SDS011;8402;51.466;6.806;2024-01-10T01:47:14;10.03;;;3.70;;
16579;SDS011;8402;51.466;6.806;2024-01-10T01:49:45;10.50;;;3.90;;
16579;SDS011;8402;51.466;6.806;2024-01-10T01:52:18;8.07;;;3.07;;
16579;SDS011;8402;51.466;6.806;2024-01-10T01:54:51;5.90;;;2.63;;
16579;SDS011;8402;51.466;6.806;2024-01-10T01:57:21;6.80;;;2.67;;
16579;SDS011;8402;51.466;6.806;2024-01-10T01:59:51;8.37;;;2.93;;
16579;SDS011;8402;51.466;6.806;2024-01-10T02:02:24;7.40;;;3.03;;
16579;SDS011;8402;51.466;6.806;2024-01-10T02:05:00;8.23;;;3.13;;
16579;SDS011;8402;51.466;6.806;2024-01-10T02:07:30;14.07;;;3.37;;
16579;SDS011;8402;51.466;6.806;2024-01-10T02:10:03;6.70;;;2.67;;
16579;SDS011;8402;51.466;6.806;2024-01-10T02:12:34;9.83;;;3.27;;
16579;SDS011;8402;51.466;6.806;2024-01-10T02:15:04;6.97;;;2.93;;
16579;SDS011;8402;51.466;6.806;2024-01-10T02:17:35;10.43;;;3.30;;
16579;SDS011;8402;51.466;6.806;2024-01-10T02:20:09;6.60;;;2.70;;
16579;SDS011;8402;51.466;6.806;2024-01-10T02:22:40;6.07;;;2.80;;
16579;SDS011;8402;51.466;6.806;2024-01-10T02:25:16;9.60;;;3.57;;
16579;SDS011;8402;51.466;6.806;2024-01-10T02:27:48;6.37;;;2.93;;
16579;SDS011;8402;51.466;6.806;2024-01-10T02:30:22;7.27;;;3.10;;
16579;SDS011;8402;51.466;6.806;2024-01-10T02:32:55;8.33;;;3.73;;
16579;SDS011;8402;51.466;6.806;2024-01-10T02:35:25;5.47;;;3.00;;
16579;SDS011;8402;51.466;6.806;2024-01-10T02:37:59;6.50;;;2.67;;
16579;SDS011;8402;51.466;6.806;2024-01-10T02:40:34;8.07;;;2.97;;
16579;SDS011;8402;51.466;6.806;2024-01-10T02:43:07;8.30;;;2.80;;
16579;SDS011;8402;51.466;6.806;2024-01-10T02:45:38;7.60;;;3.00;;
16579;SDS011;8402;51.466;6.806;2024-01-10T02:48:08;9.37;;;3.20;;
16579;SDS011;8402;51.466;6.806;2024-01-10T02:50:38;9.60;;;3.37;;
16579;SDS011;8402;51.466;6.806;2024-01-10T02:53:10;6.80;;;2.70;;
16579;SDS011;8402;51.466;6.806;2024-01-10T02:55:43;8.20;;;2.90;;
16579;SDS011;8402;51.466;6.806;2024-01-10T02:58:15;10.23;;;2.90;;
16579;SDS011;8402;51.466;6.806;2024-01-10T03:00:48;6.53;;;2.97;;
16579;SDS011;8402;51.466;6.806;2024-01-10T03:03:19;7.13;;;3.37;;
16579;SDS011;8402;51.466;6.806;2024-01-10T03:05:49;9.00;;;3.10;;
16579;SDS011;8402;51.466;6.806;2024-01-10T03:08:27;4.30;;;2.47;;
16579;SDS011;8402;51.466;6.806;2024-01-10T03:11:00;8.87;;;3.50;;
16579;SDS011;8402;51.466;6.806;2024-01-10T03:13:33;6.70;;;2.27;;
16579;SDS011;8402;51.466;6.806;2024-01-10T03:16:09;9.80;;;3.47;;
16579;SDS011;8402;51.466;6.806;2024-01-10T03:18:39;8.10;;;3.00;;
16579;SDS011;8402;51.466;6.806;2024-01-10T03:21:19;8.07;;;3.20;;
16579;SDS011;8402;51.466;6.806;2024-01-10T03:23:52;8.97;;;3.07;;
16579;SDS011;8402;51.466;6.806;2024-01-10T03:26:26;3.80;;;2.17;;
16579;SDS011;8402;51.466;6.806;2024-01-10T03:28:57;4.53;;;2.50;;
16579;SDS011;8402;51.466;6.806;2024-01-10T03:31:30;7.40;;;3.20;;
16579;SDS011;8402;51.466;6.806;2024-01-10T03:34:00;9.53;;;3.57;;
16579;SDS011;8402;51.466;6.806;2024-01-10T03:36:31;9.17;;;3.10;;
16579;SDS011;8402;51.466;6.806;2024-01-10T03:39:04;7.33;;;3.00;;
16579;SDS011;8402;51.466;6.806;2024-01-10T03:41:38;8.80;;;3.47;;
16579;SDS011;8402;51.466;6.806;2024-01-10T03:44:08;10.00;;;3.70;;
16579;SDS011;8402;51.466;6.806;2024-01-10T03:46:39;6.63;;;2.97;;
16579;SDS011;8402;51.466;6.806;2024-01-10T03:49:09;7.20;;;2.87;;
16579;SDS011;8402;51.466;6.806;2024-01-10T03:51:40;7.07;;;2.57;;
16579;SDS011;8402;51.466;6.806;2024-01-10T03:54:10;8.47;;;3.00;;
16579;SDS011;8402;51.466;6.806;2024-01-10T03:56:43;7.63;;;2.93;;
16579;SDS011;8402;51.466;6.806;2024-01-10T03:59:13;8.77;;;3.07;;
16579;SDS011;8402;51.466;6.806;2024-01-10T04:01:44;10.60;;;3.00;;
16579;SDS011;8402;51.466;6.806;2024-01-10T04:04:15;9.90;;;3.90;;
16579;SDS011;8402;51.466;6.806;2024-01-10T04:06:49;8.67;;;3.23;;
16579;SDS011;8402;51.466;6.806;2024-01-10T04:09:19;8.20;;;2.57;;
16579;SDS011;8402;51.466;6.806;2024-01-10T04:11:51;7.20;;;3.00;;
16579;SDS011;8402;51.466;6.806;2024-01-10T04:14:24;8.20;;;3.53;;
16579;SDS011;8402;51.466;6.806;2024-01-10T04:16:55;9.67;;;2.63;;
16579;SDS011;8402;51.466;6.806;2024-01-10T04:19:25;8.47;;;3.47;;
16579;SDS011;8402;51.466;6.806;2024-01-10T04:21:55;8.73;;;2.97;;
16579;SDS011;8402;51.466;6.806;2024-01-10T04:24:28;11.07;;;2.90;;
16579;SDS011;8402;51.466;6.806;2024-01-10T04:27:01;8.17;;;3.43;;
16579;SDS011;8402;51.466;6.806;2024-01-10T04:29:36;8.20;;;2.97;;
16579;SDS011;8402;51.466;6.806;2024-01-10T04:32:09;9.80;;;3.57;;
16579;SDS011;8402;51.466;6.806;2024-01-10T04:34:42;8.13;;;2.70;;
16579;SDS011;8402;51.466;6.806;2024-01-10T04:37:12;7.73;;;3.53;;
16579;SDS011;8402;51.466;6.806;2024-01-10T04:39:42;11.10;;;3.20;;
16579;SDS011;8402;51.466;6.806;2024-01-10T04:42:17;8.30;;;3.27;;
16579;SDS011;8402;51.466;6.806;2024-01-10T04:44:47;7.47;;;2.47;;
16579;SDS011;8402;51.466;6.806;2024-01-10T04:47:17;5.63;;;2.83;;
16579;SDS011;8402;51.466;6.806;2024-01-10T04:49:48;9.53;;;3.40;;
16579;SDS011;8402;51.466;6.806;2024-01-10T04:52:18;6.53;;;3.27;;
16579;SDS011;8402;51.466;6.806;2024-01-10T04:54:48;6.97;;;3.13;;
16579;SDS011;8402;51.466;6.806;2024-01-10T04:57:24;5.10;;;2.83;;
16579;SDS011;8402;51.466;6.806;2024-01-10T04:59:54;5.40;;;2.47;;
16579;SDS011;8402;51.466;6.806;2024-01-10T05:02:24;8.47;;;3.03;;
16579;SDS011;8402;51.466;6.806;2024-01-10T05:05:04;7.80;;;3.00;;
16579;SDS011;8402;51.466;6.806;2024-01-10T05:07:36;6.17;;;2.50;;
16579;SDS011;8402;51.466;6.806;2024-01-10T05:10:07;10.10;;;4.03;;
16579;SDS011;8402;51.466;6.806;2024-01-10T05:12:39;5.83;;;2.97;;
16579;SDS011;8402;51.466;6.806;2024-01-10T05:15:11;10.03;;;3.60;;
16579;SDS011;8402;51.466;6.806;2024-01-10T05:17:43;10.57;;;3.37;;
16579;SDS011;8402;51.466;6.806;2024-01-10T05:20:13;9.37;;;3.77;;
16579;SDS011;8402;51.466;6.806;2024-01-10T05:22:43;8.90;;;3.37;;
16579;SDS011;8402;51.466;6.806;2024-01-10T05:25:13;7.57;;;3.13;;
16579;SDS011;8402;51.466;6.806;2024-01-10T05:27:47;5.57;;;3.10;;
16579;SDS011;8402;51.466;6.806;2024-01-10T05:30:17;7.77;;;3.20;;
16579;SDS011;8402;51.466;6.806;2024-01-10T05:32:49;7.73;;;3.10;;
16579;SDS011;8402;51.466;6.806;2024-01-10T05:35:19;13.67;;;3.93;;
16579;SDS011;8402;51.466;6.806;2024-01-10T05:37:51;10.70;;;3.77;;
16579;SDS011;8402;51.466;6.806;2024-01-10T05:40:21;10.33;;;3.00;;
16579;SDS011;8402;51.466;6.806;2024-01-10T05:42:53;5.87;;;2.97;;
16579;SDS011;8402;51.466;6.806;2024-01-10T05:45:23;6.97;;;3.67;;
16579;SDS011;8402;51.466;6.806;2024-01-10T05:47:54;10.87;;;3.63;;
16579;SDS011;8402;51.466;6.806;2024-01-10T05:50:24;5.20;;;2.53;;
16579;SDS011;8402;51.466;6.806;2024-01-10T05:52:55;8.87;;;3.23;;
16579;SDS011;8402;51.466;6.806;2024-01-10T05:55:25;7.63;;;2.63;;
16579;SDS011;8402;51.466;6.806;2024-01-10T05:57:57;3.50;;;1.83;;
16579;SDS011;8402;51.466;6.806;2024-01-10T06:00:27;9.07;;;3.83;;
16579;SDS011;8402;51.466;6.806;2024-01-10T06:03:00;4.07;;;1.43;;
16579;SDS011;8402;51.466;6.806;2024-01-10T06:05:30;13.73;;;4.07;;
16579;SDS011;8402;51.466;6.806;2024-01-10T06:08:03;9.60;;;3.63;;
16579;SDS011;8402;51.466;6.806;2024-01-10T06:10:33;9.77;;;3.20;;
16579;SDS011;8402;51.466;6.806;2024-01-10T06:13:06;11.07;;;3.77;;
16579;SDS011;8402;51.466;6.806;2024-01-10T06:15:36;9.13;;;3.17;;
16579;SDS011;8402;51.466;6.806;2024-01-10T06:18:06;10.47;;;3.67;;
16579;SDS011;8402;51.466;6.806;2024-01-10T06:20:36;10.93;;;4.07;;
16579;SDS011;8402;51.466;6.806;2024-01-10T06:23:06;8.67;;;3.80;;
16579;SDS011;8402;51.466;6.806;2024-01-10T06:25:36;9.27;;;3.50;;
16579;SDS011;8402;51.466;6.806;2024-01-10T06:28:09;9.73;;;3.60;;
16579;SDS011;8402;51.466;6.806;2024-01-10T06:30:39;8.43;;;2.87;;
16579;SDS011;8402;51.466;6.806;2024-01-10T06:33:11;4.97;;;1.97;;
16579;SDS011;8402;51.466;6.806;2024-01-10T06:35:42;5.10;;;2.50;;
16579;SDS011;8402;51.466;6.806;2024-01-10T06:38:12;10.33;;;4.00;;
16579;SDS011;8402;51.466;6.806;2024-01-10T06:40:43;11.57;;;2.93;;
16579;SDS011;8402;51.466;6.806;2024-01-10T06:43:17;8.83;;;3.37;;
16579;SDS011;8402;51.466;6.806;2024-01-10T06:45:47;10.60;;;3.20;;
16579;SDS011;8402;51.466;6.806;2024-01-10T06:48:17;8.90;;;2.97;;
16579;SDS011;8402;51.466;6.806;2024-01-10T06:50:47;11.27;;;3.63;;
16579;SDS011;8402;51.466;6.806;2024-01-10T06:53:17;12.27;;;3.37;;
16579;SDS011;8402;51.466;6.806;2024-01-10T06:55:47;12.07;;;3.60;;
16579;SDS011;8402;51.466;6.806;2024-01-10T06:58:20;8.23;;;3.80;;
16579;SDS011;8402;51.466;6.806;2024-01-10T07:00:50;9.70;;;3.27;;
16579;SDS011;8402;51.466;6.806;2024-01-10T07:03:20;5.70;;;2.70;;
16579;SDS011;8402;51.466;6.806;2024-01-10T07:05:50;12.37;;;3.60;;
16579;SDS011;8402;51.466;6.806;2024-01-10T07:08:20;6.60;;;3.57;;
16579;SDS011;8402;51.466;6.806;2024-01-10T07:10:50;8.83;;;3.80;;
16579;SDS011;8402;51.466;6.806;2024-01-10T07:13:25;6.10;;;2.60;;
16579;SDS011;8402;51.466;6.806;2024-01-10T07:15:55;11.03;;;3.63;;
16579;SDS011;8402;51.466;6.806;2024-01-10T07:18:25;8.67;;;3.00;;
16579;SDS011;8402;51.466;6.806;2024-01-10T07:20:54;11.97;;;2.93;;
16579;SDS011;8402;51.466;6.806;2024-01-10T07:23:24;7.73;;;3.23;;
16579;SDS011;8402;51.466;6.806;2024-01-10T07:25:54;7.27;;;3.53;;
16579;SDS011;8402;51.466;6.806;2024-01-10T07:28:28;8.73;;;3.67;;
16579;SDS011;8402;51.466;6.806;2024-01-10T07:30:59;8.87;;;4.00;;
16579;SDS011;8402;51.466;6.806;2024-01-10T07:33:29;9.53;;;2.87;;
16579;SDS011;8402;51.466;6.806;2024-01-10T07:36:00;5.33;;;2.83;;
16579;SDS011;8402;51.466;6.806;2024-01-10T07:38:30;9.10;;;4.10;;
16579;SDS011;8402;51.466;6.806;2024-01-10T07:41:03;4.80;;;2.40;;
16579;SDS011;8402;51.466;6.806;2024-01-10T07:43:36;11.90;;;4.43;;
16579;SDS011;8402;51.466;6.806;2024-01-10T07:46:06;7.60;;;3.17;;
16579;SDS011;8402;51.466;6.806;2024-01-10T07:48:36;8.57;;;3.40;;
16579;SDS011;8402;51.466;6.806;2024-01-10T07:51:06;9.83;;;4.27;;
16579;SDS011;8402;51.466;6.806;2024-01-10T07:53:36;7.97;;;3.50;;
16579;SDS011;8402;51.466;6.806;2024-01-10T07:56:06;6.77;;;3.07;;
16579;SDS011;8402;51.466;6.806;2024-01-10T07:58:38;8.37;;;2.90;;
16579;SDS011;8402;51.466;6.806;2024-01-10T08:01:08;8.40;;;3.73;;
16579;SDS011;8402;51.466;6.806;2024-01-10T08:03:39;15.63;;;4.37;;
16579;SDS011;8402;51.466;6.806;2024-01-10T08:06:09;6.77;;;3.43;;
16579;SDS011;8402;51.466;6.806;2024-01-10T08:08:52;8.43;;;3.40;;
16579;SDS011;8402;51.466;6.806;2024-01-10T08:11:22;11.10;;;3.97;;
16579;SDS011;8402;51.466;6.806;2024-01-10T08:13:55;11.50;;;4.97;;
16579;SDS011;8402;51.466;6.806;2024-01-10T08:16:25;15.07;;;4.73;;
16579;SDS011;8402;51.466;6.806;2024-01-10T08:18:55;7.67;;;3.63;;
16579;SDS011;8402;51.466;6.806;2024-01-10T08:21:26;14.80;;;4.83;;
16579;SDS011;8402;51.466;6.806;2024-01-10T08:23:56;9.97;;;3.57;;
16579;SDS011;8402;51.466;6.806;2024-01-10T08:26:26;12.97;;;4.33;;
16579;SDS011;8402;51.466;6.806;2024-01-10T08:28:59;10.07;;;4.03;;
16579;SDS011;8402;51.466;6.806;2024-01-10T08:31:29;12.97;;;4.03;;
16579;SDS011;8402;51.466;6.806;2024-01-10T08:33:59;11.27;;;3.97;;
16579;SDS011;8402;51.466;6.806;2024-01-10T08:36:30;8.37;;;3.33;;
16579;SDS011;8402;51.466;6.806;2024-01-10T08:38:59;12.80;;;5.00;;
16579;SDS011;8402;51.466;6.806;2024-01-10T08:41:33;11.23;;;4.57;;
16579;SDS011;8402;51.466;6.806;2024-01-10T08:44:12;10.93;;;4.10;;
16579;SDS011;8402;51.466;6.806;2024-01-10T08:46:43;14.70;;;5.33;;
16579;SDS011;8402;51.466;6.806;2024-01-10T08:49:17;8.47;;;3.90;;
16579;SDS011;8402;51.466;6.806;2024-01-10T08:51:47;16.07;;;5.90;;
16579;SDS011;8402;51.466;6.806;2024-01-10T08:54:19;14.33;;;4.70;;
16579;SDS011;8402;51.466;6.806;2024-01-10T08:56:51;16.90;;;5.70;;
16579;SDS011;8402;51.466;6.806;2024-01-10T08:59:24;11.53;;;4.57;;
16579;SDS011;8402;51.466;6.806;2024-01-10T09:01:55;7.07;;;3.00;;
16579;SDS011;8402;51.466;6.806;2024-01-10T09:04:25;11.50;;;4.23;;
16579;SDS011;8402;51.466;6.806;2024-01-10T09:06:55;11.53;;;3.37;;
16579;SDS011;8402;51.466;6.806;2024-01-10T09:09:23;6.27;;;3.37;;
16579;SDS011;8402;51.466;6.806;2024-01-10T09:11:54;14.17;;;4.97;;
16579;SDS011;8402;51.466;6.806;2024-01-10T09:14:27;8.03;;;3.37;;
16579;SDS011;8402;51.466;6.806;2024-01-10T09:16:57;14.93;;;4.80;;
16579;SDS011;8402;51.466;6.806;2024-01-10T09:19:29;16.70;;;5.40;;
16579;SDS011;8402;51.466;6.806;2024-01-10T09:22:00;12.73;;;4.73;;
16579;SDS011;8402;51.466;6.806;2024-01-10T09:24:40;16.57;;;5.07;;
16579;SDS011;8402;51.466;6.806;2024-01-10T09:27:12;9.53;;;4.70;;
16579;SDS011;8402;51.466;6.806;2024-01-10T09:29:45;14.17;;;5.13;;
16579;SDS011;8402;51.466;6.806;2024-01-10T09:32:23;11.80;;;4.33;;
16579;SDS011;8402;51.466;6.806;2024-01-10T09:34:53;15.73;;;5.37;;
16579;SDS011;8402;51.466;6.806;2024-01-10T09:37:24;19.80;;;5.77;;
16579;SDS011;8402;51.466;6.806;2024-01-10T09:42:42;23.80;;;5.50;;
16579;SDS011;8402;51.466;6.806;2024-01-10T09:45:20;13.67;;;6.07;;
16579;SDS011;8402;51.466;6.806;2024-01-10T09:47:52;16.63;;;5.57;;
16579;SDS011;8402;51.466;6.806;2024-01-10T09:50:26;18.83;;;6.27;;
16579;SDS011;8402;51.466;6.806;2024-01-10T09:53:04;15.17;;;5.67;;
16579;SDS011;8402;51.466;6.806;2024-01-10T09:55:36;13.53;;;5.07;;
16579;SDS011;8402;51.466;6.806;2024-01-10T09:58:06;16.50;;;6.93;;
16579;SDS011;8402;51.466;6.806;2024-01-10T10:00:40;14.63;;;6.20;;
16579;SDS011;8402;51.466;6.806;2024-01-10T10:03:11;14.33;;;4.23;;
16579;SDS011;8402;51.466;6.806;2024-01-10T10:05:43;22.63;;;6.83;;
16579;SDS011;8402;51.466;6.806;2024-01-10T10:08:14;14.50;;;5.03;;
16579;SDS011;8402;51.466;6.806;2024-01-10T10:10:49;13.67;;;5.17;;
16579;SDS011;8402;51.466;6.806;2024-01-10T10:13:26;13.97;;;6.27;;
16579;SDS011;8402;51.466;6.806;2024-01-10T10:16:02;13.83;;;4.47;;
16579;SDS011;8402;51.466;6.806;2024-01-10T10:18:33;16.37;;;5.70;;
16579;SDS011;8402;51.466;6.806;2024-01-10T10:21:07;18.60;;;5.63;;
16579;SDS011;8402;51.466;6.806;2024-01-10T10:23:40;19.77;;;7.00;;
16579;SDS011;8402;51.466;6.806;2024-01-10T10:26:11;16.60;;;6.40;;
16579;SDS011;8402;51.466;6.806;2024-01-10T10:28:47;17.07;;;6.10;;
16579;SDS011;8402;51.466;6.806;2024-01-10T10:31:20;19.17;;;7.03;;
16579;SDS011;8402;51.466;6.806;2024-01-10T10:33:50;18.70;;;7.60;;
16579;SDS011;8402;51.466;6.806;2024-01-10T10:36:29;13.47;;;4.57;;
16579;SDS011;8402;51.466;6.806;2024-01-10T10:38:59;20.10;;;6.80;;
16579;SDS011;8402;51.466;6.806;2024-01-10T10:41:31;19.97;;;7.33;;
16579;SDS011;8402;51.466;6.806;2024-01-10T10:44:04;16.10;;;6.37;;
16579;SDS011;8402;51.466;6.806;2024-01-10T10:46:41;12.57;;;4.53;;
16579;SDS011;8402;51.466;6.806;2024-01-10T10:49:18;19.17;;;7.20;;
16579;SDS011;8402;51.466;6.806;2024-01-10T10:52:00;19.73;;;7.07;;
16579;SDS011;8402;51.466;6.806;2024-01-10T10:54:32;16.30;;;7.13;;
16579;SDS011;8402;51.466;6.806;2024-01-10T10:57:04;19.00;;;6.57;;
16579;SDS011;8402;51.466;6.806;2024-01-10T10:59:35;30.63;;;7.37;;
16579;SDS011;8402;51.466;6.806;2024-01-10T11:02:09;20.87;;;7.47;;
16579;SDS011;8402;51.466;6.806;2024-01-10T11:04:40;18.27;;;7.50;;
16579;SDS011;8402;51.466;6.806;2024-01-10T11:07:11;23.90;;;7.93;;
16579;SDS011;8402;51.466;6.806;2024-01-10T11:09:41;17.70;;;7.03;;
16579;SDS011;8402;51.466;6.806;2024-01-10T11:12:23;16.53;;;6.27;;
16579;SDS011;8402;51.466;6.806;2024-01-10T11:15:13;23.00;;;8.60;;
16579;SDS011;8402;51.466;6.806;2024-01-10T11:17:57;18.70;;;7.53;;
16579;SDS011;8402;51.466;6.806;2024-01-10T11:20:44;19.40;;;7.67;;
16579;SDS011;8402;51.466;6.806;2024-01-10T11:23:31;16.00;;;6.40;;
16579;SDS011;8402;51.466;6.806;2024-01-10T11:26:11;19.73;;;7.60;;
16579;SDS011;8402;51.466;6.806;2024-01-10T11:28:50;20.17;;;7.03;;
16579;SDS011;8402;51.466;6.806;2024-01-10T11:31:27;21.37;;;7.37;;
16579;SDS011;8402;51.466;6.806;2024-01-10T11:34:01;18.23;;;6.27;;
16579;SDS011;8402;51.466;6.806;2024-01-10T11:36:32;25.37;;;9.33;;
16579;SDS011;8402;51.466;6.806;2024-01-10T11:39:03;19.50;;;7.00;;
16579;SDS011;8402;51.466;6.806;2024-01-10T11:41:38;25.83;;;8.73;;
16579;SDS011;8402;51.466;6.806;2024-01-10T11:47:03;15.00;;;5.97;;
16579;SDS011;8402;51.466;6.806;2024-01-10T11:49:36;22.63;;;7.80;;
16579;SDS011;8402;51.466;6.806;2024-01-10T11:52:08;21.63;;;8.13;;
16579;SDS011;8402;51.466;6.806;2024-01-10T11:54:39;27.10;;;7.43;;
16579;SDS011;8402;51.466;6.806;2024-01-10T11:57:18;21.47;;;7.20;;
16579;SDS011;8402;51.466;6.806;2024-01-10T11:59:50;17.70;;;7.40;;
16579;SDS011;8402;51.466;6.806;2024-01-10T12:02:21;15.83;;;6.67;;
16579;SDS011;8402;51.466;6.806;2024-01-10T12:04:56;18.63;;;7.80;;
16579;SDS011;8402;51.466;6.806;2024-01-10T12:07:26;19.67;;;7.07;;
16579;SDS011;8402;51.466;6.806;2024-01-10T12:09:59;18.17;;;7.23;;
16579;SDS011;8402;51.466;6.806;2024-01-10T12:12:29;21.20;;;8.33;;
16579;SDS011;8402;51.466;6.806;2024-01-10T12:15:00;19.50;;;7.97;;
16579;SDS011;8402;51.466;6.806;2024-01-10T12:17:30;18.73;;;6.57;;
16579;SDS011;8402;51.466;6.806;2024-01-10T12:20:03;26.00;;;7.80;;
16579;SDS011;8402;51.466;6.806;2024-01-10T12:22:33;20.23;;;7.10;;
16579;SDS011;8402;51.466;6.806;2024-01-10T12:25:04;24.07;;;7.87;;
16579;SDS011;8402;51.466;6.806;2024-01-10T12:27:34;25.33;;;8.87;;
16579;SDS011;8402;51.466;6.806;2024-01-10T12:30:05;20.00;;;7.20;;
16579;SDS011;8402;51.466;6.806;2024-01-10T12:32:43;21.97;;;8.30;;
16579;SDS011;8402;51.466;6.806;2024-01-10T12:35:22;19.37;;;6.97;;
16579;SDS011;8402;51.466;6.806;2024-01-10T12:37:55;30.00;;;8.10;;
16579;SDS011;8402;51.466;6.806;2024-01-10T12:40:25;27.37;;;8.27;;
16579;SDS011;8402;51.466;6.806;2024-01-10T12:43:01;21.03;;;8.23;;
16579;SDS011;8402;51.466;6.806;2024-01-10T12:45:31;19.23;;;7.40;;
16579;SDS011;8402;51.466;6.806;2024-01-10T12:48:01;18.07;;;7.93;;
16579;SDS011;8402;51.466;6.806;2024-01-10T12:50:37;20.83;;;7.37;;
16579;SDS011;8402;51.466;6.806;2024-01-10T12:53:07;16.87;;;6.07;;
16579;SDS011;8402;51.466;6.806;2024-01-10T12:55:37;20.70;;;7.50;;
16579;SDS011;8402;51.466;6.806;2024-01-10T12:58:07;21.50;;;7.97;;
16579;SDS011;8402;51.466;6.806;2024-01-10T13:00:37;21.50;;;8.33;;
16579;SDS011;8402;51.466;6.806;2024-01-10T13:03:07;25.70;;;8.40;;
16579;SDS011;8402;51.466;6.806;2024-01-10T13:05:40;25.17;;;8.53;;
16579;SDS011;8402;51.466;6.806;2024-01-10T13:08:10;14.80;;;7.33;;
16579;SDS011;8402;51.466;6.806;2024-01-10T13:10:41;20.23;;;7.80;;
16579;SDS011;8402;51.466;6.806;2024-01-10T13:13:11;24.30;;;8.67;;
16579;SDS011;8402;51.466;6.806;2024-01-10T13:15:41;22.80;;;8.43;;
16579;SDS011;8402;51.466;6.806;2024-01-10T13:18:12;25.53;;;8.43;;
16579;SDS011;8402;51.466;6.806;2024-01-10T13:20:45;26.23;;;8.83;;
16579;SDS011;8402;51.466;6.806;2024-01-10T13:23:26;19.43;;;8.13;;
16579;SDS011;8402;51.466;6.806;2024-01-10T13:25:56;21.33;;;7.27;;
16579;SDS011;8402;51.466;6.806;2024-01-10T13:28:26;18.53;;;8.20;;
16579;SDS011;8402;51.466;6.806;2024-01-10T13:30:56;21.27;;;7.33;;
16579;SDS011;8402;51.466;6.806;2024-01-10T13:33:27;21.40;;;8.27;;
16579;SDS011;8402;51.466;6.806;2024-01-10T13:36:15;22.37;;;8.57;;
16579;SDS011;8402;51.466;6.806;2024-01-10T13:38:46;22.87;;;7.93;;
16579;SDS011;8402;51.466;6.806;2024-01-10T13:41:16;22.70;;;7.70;;
16579;SDS011;8402;51.466;6.806;2024-01-10T13:43:46;19.90;;;8.13;;
16579;SDS011;8402;51.466;6.806;2024-01-10T13:46:16;18.33;;;7.60;;
16579;SDS011;8402;51.466;6.806;2024-01-10T13:48:49;23.10;;;8.87;;
16579;SDS011;8402;51.466;6.806;2024-01-10T13:51:26;20.93;;;8.07;;
16579;SDS011;8402;51.466;6.806;2024-01-10T13:53:57;21.20;;;8.13;;
16579;SDS011;8402;51.466;6.806;2024-01-10T13:56:29;22.30;;;9.33;;
16579;SDS011;8402;51.466;6.806;2024-01-10T13:59:06;25.17;;;8.27;;
16579;SDS011;8402;51.466;6.806;2024-01-10T14:01:36;22.17;;;8.70;;
16579;SDS011;8402;51.466;6.806;2024-01-10T14:04:06;21.43;;;8.57;;
16579;SDS011;8402;51.466;6.806;2024-01-10T14:06:39;25.03;;;9.23;;
16579;SDS011;8402;51.466;6.806;2024-01-10T14:09:12;23.47;;;7.97;;
16579;SDS011;8402;51.466;6.806;2024-01-10T14:11:44;33.93;;;9.97;;
16579;SDS011;8402;51.466;6.806;2024-01-10T14:14:15;20.47;;;7.57;;
16579;SDS011;8402;51.466;6.806;2024-01-10T14:17:03;23.10;;;8.00;;
16579;SDS011;8402;51.466;6.806;2024-01-10T14:19:44;21.97;;;7.90;;
16579;SDS011;8402;51.466;6.806;2024-01-10T14:22:19;21.30;;;8.23;;
16579;SDS011;8402;51.466;6.806;2024-01-10T14:24:58;20.63;;;8.17;;
16579;SDS011;8402;51.466;6.806;2024-01-10T14:27:28;26.07;;;8.97;;
16579;SDS011;8402;51.466;6.806;2024-01-10T14:29:58;24.77;;;8.50;;
16579;SDS011;8402;51.466;6.806;2024-01-10T14:32:30;25.03;;;7.30;;
16579;SDS011;8402;51.466;6.806;2024-01-10T14:35:00;26.17;;;9.13;;
16579;SDS011;8402;51.466;6.806;2024-01-10T14:37:30;20.77;;;8.47;;
16579;SDS011;8402;51.466;6.806;2024-01-10T14:40:03;23.30;;;9.03;;
16579;SDS011;8402;51.466;6.806;2024-01-10T14:42:34;21.60;;;8.97;;
16579;SDS011;8402;51.466;6.806;2024-01-10T14:45:04;22.67;;;8.30;;
16579;SDS011;8402;51.466;6.806;2024-01-10T14:47:38;21.93;;;8.73;;
16579;SDS011;8402;51.466;6.806;2024-01-10T14:50:08;26.07;;;8.07;;
16579;SDS011;8402;51.466;6.806;2024-01-10T14:52:41;25.47;;;9.07;;
16579;SDS011;8402;51.466;6.806;2024-01-10T14:55:12;24.73;;;9.20;;
16579;SDS011;8402;51.466;6.806;2024-01-10T14:57:44;22.43;;;8.63;;
16579;SDS011;8402;51.466;6.806;2024-01-10T15:00:15;23.50;;;8.73;;
16579;SDS011;8402;51.466;6.806;2024-01-10T15:02:45;24.80;;;9.07;;
16579;SDS011;8402;51.466;6.806;2024-01-10T15:05:16;22.53;;;8.83;;
16579;SDS011;8402;51.466;6.806;2024-01-10T15:07:48;21.17;;;8.33;;
16579;SDS011;8402;51.466;6.806;2024-01-10T15:10:19;24.03;;;9.20;;
16579;SDS011;8402;51.466;6.806;2024-01-10T15:12:49;25.10;;;9.00;;
16579;SDS011;8402;51.466;6.806;2024-01-10T15:15:18;26.90;;;9.47;;
16579;SDS011;8402;51.466;6.806;2024-01-10T15:17:48;28.47;;;9.90;;
16579;SDS011;8402;51.466;6.806;2024-01-10T15:20:18;23.07;;;8.40;;
16579;SDS011;8402;51.466;6.806;2024-01-10T15:22:51;26.57;;;10.23;;
16579;SDS011;8402;51.466;6.806;2024-01-10T15:25:22;20.63;;;8.07;;
16579;SDS011;8402;51.466;6.806;2024-01-10T15:27:53;21.03;;;8.53;;